Time;durP1;ratioP1;P1;durP2;ratioP2;P2;SDS_P1;SDS_P2;PMS_P1;PMS_P2;Temp;Humidity;BMP_temperature;BMP_pressure;BME280_temperature;BME280_humidity;BME280_pressure;Samples;Min_cycle;Max_cycle;Signal;HPM_P1;HPM_P2
2022/04/26 03:36:19;;;;;;;0.82;0.60;;;;;;;-148.56;100.00;61375.16;4922665;28;20136;-28
2022/04/26 03:38:47;;;;;;;1.00;0.80;;;;;;;-148.56;100.00;61375.16;4916678;28;20529;-30
2022/04/26 03:41:14;;;;;;;1.77;0.73;;;;;;;-148.56;100.00;61375.16;4914757;28;20039;-29
2022/04/26 03:43:39;;;;;;;1.02;0.80;;;;;;;-148.56;100.00;61375.16;4914986;28;20046;-29
2022/04/26 03:46:05;;;;;;;1.08;0.90;;;;;;;-148.56;100.00;61375.16;4913797;28;20027;-30
2022/04/26 03:48:30;;;;;;;1.80;0.70;;;;;;;-148.56;100.00;61375.16;4918126;28;20031;-29
2022/04/26 03:50:55;;;;;;;1.20;0.82;;;;;;;-148.56;100.00;61375.16;4917700;28;20169;-30
2022/04/26 03:53:21;;;;;;;1.15;0.90;;;;;;;-148.56;100.00;61375.16;4918294;28;20032;-30
2022/04/26 03:55:46;;;;;;;1.38;0.60;;;;;;;-148.56;100.00;61375.16;4915163;28;20302;-29
2022/04/26 03:58:12;;;;;;;3.13;0.80;;;;;;;-148.56;100.00;61375.16;4920771;28;20067;-28
2022/04/26 04:00:38;;;;;;;2.00;0.70;;;;;;;-148.56;100.00;61375.16;4921103;28;20035;-28
2022/04/26 04:03:03;;;;;;;0.85;0.60;;;;;;;-148.56;100.00;61375.16;4918903;28;20039;-27
2022/04/26 04:05:29;;;;;;;1.80;0.63;;;;;;;-148.56;100.00;61375.16;4916314;28;20043;-28
2022/04/26 04:07:54;;;;;;;0.90;0.55;;;;;;;-148.56;100.00;61375.16;4920162;28;20031;-29
2022/04/26 04:10:19;;;;;;;1.55;0.77;;;;;;;-148.56;100.00;61375.16;4916051;28;20030;-30
2022/04/26 04:12:45;;;;;;;0.65;0.60;;;;;;;-148.56;100.00;61375.16;4918888;28;20485;-29
2022/04/26 04:15:10;;;;;;;0.57;0.57;;;;;;;-148.56;100.00;61375.16;4921444;28;20083;-30
2022/04/26 04:17:36;;;;;;;1.05;0.90;;;;;;;-148.56;100.00;61375.16;4918419;28;20035;-29
2022/04/26 04:20:01;;;;;;;0.82;0.70;;;;;;;-148.56;100.00;61375.16;4916063;28;20035;-30
2022/04/26 04:22:27;;;;;;;0.88;0.65;;;;;;;-148.56;100.00;61375.16;4917620;28;20503;-29
2022/04/26 04:24:52;;;;;;;0.90;0.65;;;;;;;-148.56;100.00;61375.16;4923512;28;20039;-29
2022/04/26 04:27:18;;;;;;;2.22;0.63;;;;;;;-148.56;100.00;61375.16;4923635;28;20039;-29
2022/04/26 04:29:44;;;;;;;0.88;0.52;;;;;;;-148.56;100.00;61375.16;4925339;28;20398;-29
2022/04/26 04:32:09;;;;;;;1.25;0.70;;;;;;;-148.56;100.00;61375.16;4924949;28;20036;-31
2022/04/26 04:34:35;;;;;;;1.15;0.50;;;;;;;-148.56;100.00;61375.16;4925487;28;20102;-31
2022/04/26 04:37:00;;;;;;;1.40;0.80;;;;;;;-148.56;100.00;61375.16;4924607;28;20027;-29
2022/04/26 04:39:27;;;;;;;0.98;0.80;;;;;;;-148.56;100.00;61375.16;4923868;28;20534;-30
2022/04/26 04:41:52;;;;;;;0.60;0.60;;;;;;;-148.56;100.00;61375.16;4925106;28;20035;-29
2022/04/26 04:44:18;;;;;;;1.45;0.70;;;;;;;-148.56;100.00;61375.16;4924664;28;20027;-28
2022/04/26 04:46:44;;;;;;;1.27;0.82;;;;;;;-148.56;100.00;61375.16;4924735;28;20649;-28
2022/04/26 04:49:09;;;;;;;9.68;1.45;;;;;;;-148.56;100.00;61375.16;4921485;28;20044;-29
2022/04/26 04:51:35;;;;;;;3.67;1.38;;;;;;;-148.56;100.00;61375.16;4921757;28;20107;-31
2022/04/26 04:54:01;;;;;;;1.63;0.90;;;;;;;-148.56;100.00;61375.16;4923347;28;20521;-29
2022/04/26 04:56:27;;;;;;;1.17;0.95;;;;;;;-148.56;100.00;61375.16;4926103;28;20061;-28
2022/04/26 04:58:53;;;;;;;1.10;0.70;;;;;;;-148.56;100.00;61375.16;4925630;28;20179;-30
2022/04/26 05:01:18;;;;;;;0.70;0.70;;;;;;;-148.56;100.00;61375.16;4926142;28;20731;-30
2022/04/26 05:03:44;;;;;;;1.13;0.60;;;;;;;-148.56;100.00;61375.16;4926561;28;20020;-28
2022/04/26 05:06:14;;;;;;;1.17;0.73;;;;;;;-148.56;100.00;61375.16;4925674;28;20495;-30
2022/04/26 05:08:39;;;;;;;0.80;0.68;;;;;;;-148.56;100.00;61375.16;4924484;28;20038;-30
2022/04/26 05:11:04;;;;;;;1.67;0.73;;;;;;;-148.56;100.00;61375.16;4922354;28;20035;-29
2022/04/26 05:13:30;;;;;;;0.63;0.63;;;;;;;-148.56;100.00;61375.16;4925236;28;20024;-28
2022/04/26 05:15:55;;;;;;;1.27;0.70;;;;;;;-148.56;100.00;61375.16;4924650;28;21078;-29
2022/04/26 05:18:20;;;;;;;1.02;0.75;;;;;;;-148.56;100.00;61375.16;4925687;28;20031;-34
2022/04/26 05:20:46;;;;;;;1.00;0.60;;;;;;;-148.56;100.00;61375.16;4925560;28;20411;-30
2022/04/26 05:25:55;;;;;;;1.25;0.73;;;;;;;-148.56;100.00;61375.16;4914754;28;20066;-30
2022/04/26 05:28:21;;;;;;;0.88;0.63;;;;;;;-148.56;100.00;61375.16;4917883;28;20913;-29
2022/04/26 05:30:46;;;;;;;1.25;0.60;;;;;;;-148.56;100.00;61375.16;4916126;28;20061;-30
2022/04/26 05:33:11;;;;;;;1.00;0.68;;;;;;;-148.56;100.00;61375.16;4916417;28;20035;-28
2022/04/26 05:35:37;;;;;;;0.95;0.60;;;;;;;-148.56;100.00;61375.16;4919718;28;20046;-28
2022/04/26 05:38:02;;;;;;;0.50;0.50;;;;;;;-148.56;100.00;61375.16;4918684;28;20179;-29
2022/04/26 05:40:27;;;;;;;0.68;0.65;;;;;;;-148.56;100.00;61375.16;4916011;28;20417;-28
2022/04/26 05:42:53;;;;;;;2.50;0.65;;;;;;;-148.56;100.00;61375.16;4915737;28;20043;-30
2022/04/26 05:45:18;;;;;;;0.65;0.55;;;;;;;-148.56;100.00;61375.16;4920897;28;20033;-29
2022/04/26 05:47:44;;;;;;;2.08;0.60;;;;;;;-148.56;100.00;61375.16;4915026;28;20093;-30
2022/04/26 05:50:10;;;;;;;1.13;0.50;;;;;;;-148.56;100.00;61375.16;4918675;28;20833;-30
2022/04/26 05:52:36;;;;;;;0.52;0.52;;;;;;;-148.56;100.00;61375.16;4913340;28;20035;-28
2022/04/26 05:55:04;;;;;;;0.60;0.55;;;;;;;-148.56;100.00;61375.16;4918542;28;20031;-29
2022/04/26 05:57:30;;;;;;;0.80;0.70;;;;;;;-148.56;100.00;61375.16;4915092;28;20032;-28
2022/04/26 05:59:55;;;;;;;1.88;0.50;;;;;;;-148.56;100.00;61375.16;4914179;28;20039;-30
2022/04/26 06:02:21;;;;;;;0.50;0.50;;;;;;;-148.56;100.00;61375.16;4918107;28;20057;-28
2022/04/26 06:04:46;;;;;;;0.50;0.50;;;;;;;-148.56;100.00;61375.16;4918388;28;20035;-29
2022/04/26 06:07:11;;;;;;;2.47;0.40;;;;;;;-148.56;100.00;61375.16;4918694;28;20023;-30
2022/04/26 06:09:37;;;;;;;0.50;0.50;;;;;;;-148.56;100.00;61375.16;4911731;28;20554;-29
2022/04/26 06:12:04;;;;;;;0.80;0.60;;;;;;;-148.56;100.00;61375.16;4913830;28;20031;-28
2022/04/26 06:14:30;;;;;;;1.83;0.85;;;;;;;-148.56;100.00;61375.16;4916101;28;20040;-28
2022/04/26 06:16:55;;;;;;;1.10;0.52;;;;;;;-148.56;100.00;61375.16;4917070;28;20469;-30
2022/04/26 06:19:20;;;;;;;1.73;0.50;;;;;;;-148.56;100.00;61375.16;4916196;28;20039;-30
2022/04/26 06:21:46;;;;;;;0.50;0.40;;;;;;;-148.56;100.00;61375.16;4915073;28;20031;-34
2022/04/26 06:24:11;;;;;;;0.35;0.35;;;;;;;-148.56;100.00;61375.16;4912984;28;20036;-29
2022/04/26 06:26:37;;;;;;;1.02;0.40;;;;;;;-148.56;100.00;61375.16;4919244;28;20147;-29
2022/04/26 06:29:02;;;;;;;2.20;0.60;;;;;;;-148.56;100.00;61375.16;4912427;28;20042;-29
2022/04/26 06:31:27;;;;;;;0.68;0.65;;;;;;;-148.56;100.00;61375.16;4918225;28;20473;-30
2022/04/26 06:33:53;;;;;;;1.40;0.88;;;;;;;-148.56;100.00;61375.16;4915325;28;20082;-30
2022/04/26 06:36:18;;;;;;;2.22;1.10;;;;;;;-148.56;100.00;61375.16;4915462;28;20069;-29
2022/04/26 06:38:44;;;;;;;2.35;1.13;;;;;;;-148.56;100.00;61375.16;4909192;28;20770;-30
2022/04/26 06:41:09;;;;;;;10.10;1.83;;;;;;;-148.56;100.00;61375.16;4914174;28;20035;-29
2022/04/26 06:43:35;;;;;;;3.88;1.40;;;;;;;-148.56;100.00;61375.16;4917431;28;20034;-29
2022/04/26 06:46:00;;;;;;;4.35;1.70;;;;;;;-148.56;100.00;61375.16;4915230;28;20031;-29
2022/04/26 06:48:26;;;;;;;3.35;1.58;;;;;;;-148.56;100.00;61375.16;4904756;28;20070;-33
2022/04/26 06:50:53;;;;;;;4.13;1.40;;;;;;;-148.56;100.00;61375.16;4914189;28;20042;-30
2022/04/26 06:53:18;;;;;;;6.15;1.88;;;;;;;-148.56;100.00;61375.16;4931373;28;20035;-34
2022/04/26 06:55:43;;;;;;;3.83;1.55;;;;;;;-148.56;100.00;61375.16;4917496;28;20035;-30
2022/04/26 06:58:09;;;;;;;5.35;1.90;;;;;;;-148.56;100.00;61375.16;4917335;28;20028;-31
2022/04/26 07:00:34;;;;;;;4.30;1.83;;;;;;;-148.56;100.00;61375.16;4914568;28;20942;-30
2022/04/26 07:03:00;;;;;;;7.65;1.67;;;;;;;-148.56;100.00;61375.16;4915973;28;20528;-29
2022/04/26 07:05:25;;;;;;;4.65;1.80;;;;;;;-148.56;100.00;61375.16;4916177;28;20779;-29
2022/04/26 07:07:52;;;;;;;5.30;1.55;;;;;;;-148.56;100.00;61375.16;4920290;28;20055;-31
2022/04/26 07:10:17;;;;;;;4.93;1.77;;;;;;;-148.56;100.00;61375.16;4912308;28;20593;-29
2022/04/26 07:12:43;;;;;;;6.57;1.70;;;;;;;-148.56;100.00;61375.16;4913983;28;20739;-29
2022/04/26 07:15:08;;;;;;;4.70;1.98;;;;;;;-148.56;100.00;61375.16;4918103;28;20023;-30
2022/04/26 07:17:34;;;;;;;4.60;1.70;;;;;;;-148.56;100.00;61375.16;4916950;28;20494;-32
2022/04/26 07:19:59;;;;;;;5.30;1.70;;;;;;;-148.56;100.00;61375.16;4920106;28;20087;-31
2022/04/26 07:22:25;;;;;;;6.30;1.83;;;;;;;-148.56;100.00;61375.16;4916450;28;20038;-29
2022/04/26 07:24:51;;;;;;;3.15;1.67;;;;;;;-148.56;100.00;61375.16;4914890;28;20989;-32
2022/04/26 07:27:16;;;;;;;3.22;1.67;;;;;;;-148.56;100.00;61375.16;4919572;28;20027;-33
2022/04/26 07:29:43;;;;;;;3.20;1.67;;;;;;;-148.56;100.00;61375.16;4916809;28;20038;-30
2022/04/26 07:32:09;;;;;;;3.40;2.00;;;;;;;-148.56;100.00;61375.16;4915659;28;20043;-31
2022/04/26 07:34:34;;;;;;;3.33;1.70;;;;;;;-148.56;100.00;61375.16;4915650;28;20485;-28
2022/04/26 07:37:02;;;;;;;4.22;2.00;;;;;;;-148.56;100.00;61375.16;4914311;28;20042;-28
2022/04/26 07:39:27;;;;;;;6.15;1.95;;;;;;;-148.56;100.00;61375.16;4916312;28;20450;-29
2022/04/26 07:41:53;;;;;;;5.30;1.65;;;;;;;-148.56;100.00;61375.16;4921041;28;20043;-30
2022/04/26 07:44:18;;;;;;;3.05;1.88;;;;;;;-148.56;100.00;61375.16;4924052;28;20039;-30
2022/04/26 07:46:45;;;;;;;3.92;1.88;;;;;;;-148.56;100.00;61375.16;4916404;28;20089;-31
2022/04/26 07:49:11;;;;;;;4.10;1.98;;;;;;;-148.56;100.00;61375.16;4933822;28;20035;-29
2022/04/26 07:51:36;;;;;;;2.25;1.52;;;;;;;-148.56;100.00;61375.16;4923117;28;20023;-30
2022/04/26 07:54:01;;;;;;;3.60;1.58;;;;;;;-148.56;100.00;61375.16;4925025;28;20035;-30
2022/04/26 07:56:27;;;;;;;5.40;1.95;;;;;;;-148.56;100.00;61375.16;4925921;28;20102;-30
2022/04/26 07:58:53;;;;;;;3.83;1.80;;;;;;;-148.56;100.00;61375.16;4921625;28;20635;-30
2022/04/26 08:01:19;;;;;;;3.03;1.58;;;;;;;-148.56;100.00;61375.16;4926750;28;20039;-30
2022/04/26 08:03:44;;;;;;;4.45;1.67;;;;;;;-148.56;100.00;61375.16;4922010;28;20816;-33
2022/04/26 08:06:09;;;;;;;4.13;2.00;;;;;;;-148.56;100.00;61375.16;4924354;28;20394;-31
2022/04/26 08:08:35;;;;;;;3.97;1.55;;;;;;;-148.56;100.00;61375.16;4922705;28;20035;-29
2022/04/26 08:11:02;;;;;;;4.40;1.67;;;;;;;-148.56;100.00;61375.16;4919769;28;20047;-31
2022/04/26 08:13:28;;;;;;;3.20;1.48;;;;;;;-148.56;100.00;61375.16;4909784;28;20042;-30
2022/04/26 08:15:53;;;;;;;3.60;1.50;;;;;;;-148.56;100.00;61375.16;4914417;28;20499;-30
2022/04/26 08:18:19;;;;;;;3.28;1.63;;;;;;;-148.56;100.00;61375.16;4916002;28;20079;-28
2022/04/26 08:20:48;;;;;;;8.57;1.65;;;;;;;-148.56;100.00;61375.16;4915111;28;20028;-27
2022/04/26 08:23:13;;;;;;;2.90;1.60;;;;;;;-148.56;100.00;61375.16;4920823;28;21135;-29
2022/04/26 08:30:00;;;;;;;6.00;1.70;;;;;;;27.06;31.17;96256.31;5056686;27;20139;-28
2022/04/26 08:32:28;;;;;;;17.30;2.03;;;;;;;27.04;31.04;96268.75;5067373;28;20032;-29
2022/04/26 08:34:54;;;;;;;4.68;3.10;;;;;;;26.94;29.46;96285.13;5064481;28;20081;-30
2022/04/26 08:37:20;;;;;;;4.93;3.30;;;;;;;26.80;28.76;96277.25;5077931;28;20063;-31
2022/04/26 08:39:46;;;;;;;5.40;3.63;;;;;;;26.59;27.94;96281.19;5074822;28;20717;-29
2022/04/26 08:42:12;;;;;;;6.75;3.53;;;;;;;26.37;27.41;96291.38;5077001;28;20138;-31
2022/04/26 08:44:38;;;;;;;4.70;3.55;;;;;;;26.15;27.34;96292.72;5077043;28;20036;-30
2022/04/26 08:52:48;;;;;;;5.05;2.33;;;;;;;25.80;27.67;96299.22;5057670;28;21775;-30
2022/04/26 08:55:14;;;;;;;;;;;;;;;25.78;27.92;96307.16;5069906;28;20028;-30
2022/04/26 08:57:39;;;;;;;3.22;1.92;;;;;;;25.78;27.96;96307.16;5072688;28;19920;-28
2022/04/26 09:00:06;;;;;;;3.90;2.22;;;;;;;25.79;27.91;96308.03;5070077;28;20162;-30
2022/04/26 09:02:31;;;;;;;4.30;2.03;;;;;;;25.82;28.08;96313.94;5070712;28;20042;-29
2022/04/26 09:05:01;;;;;;;3.95;2.00;;;;;;;25.86;28.05;96321.63;5073793;28;20036;-28
2022/04/26 09:07:31;;;;;;;3.88;1.88;;;;;;;25.89;28.31;96308.31;5072817;28;20054;-29
2022/04/26 09:10:06;;;;;;;4.93;1.88;;;;;;;25.93;28.40;96315.06;5067282;28;20031;-28
2022/04/26 09:12:32;;;;;;;2.97;2.03;;;;;;;25.96;28.42;96317.50;5072852;28;20023;-28
2022/04/26 09:14:58;;;;;;;2.88;2.00;;;;;;;26.00;28.56;96316.38;5068455;28;20752;-28
2022/04/26 09:17:23;;;;;;;8.48;2.80;;;;;;;26.03;28.24;96305.69;5055318;28;20089;-31
2022/04/26 09:19:56;;;;;;;4.18;2.10;;;;;;;26.06;28.32;96305.50;5070865;28;20637;-29
2022/04/26 09:22:26;;;;;;;12.18;2.65;;;;;;;26.09;28.58;96305.28;5071993;28;20039;-29
2022/04/26 09:25:07;;;;;;;16.63;2.90;;;;;;;26.13;28.54;96305.97;5071090;28;20038;-28
2022/04/26 09:27:39;;;;;;;18.88;4.57;;;;;;;26.16;28.64;96305.75;5076169;28;20050;-29
2022/04/26 09:30:11;;;;;;;21.55;4.03;;;;;;;26.18;28.58;96305.66;5073388;28;20024;-29
2022/04/26 09:32:47;;;;;;;22.02;4.15;;;;;;;26.21;28.70;96305.47;5072136;28;20020;-29
2022/04/26 09:35:23;;;;;;;15.23;3.58;;;;;;;26.25;28.77;96308.75;5076200;28;20035;-30
2022/04/26 09:37:48;;;;;;;18.45;3.95;;;;;;;26.27;28.74;96313.00;5075262;28;20509;-30
2022/04/26 09:40:14;;;;;;;17.27;3.65;;;;;;;26.29;28.76;96311.13;5046029;28;20032;-28
2022/04/26 09:42:39;;;;;;;14.93;3.10;;;;;;;26.32;28.83;96315.34;5058037;28;20935;-31
2022/04/26 09:45:06;;;;;;;13.23;3.30;;;;;;;26.34;28.84;96316.94;5064422;28;20117;-29
2022/04/26 09:47:39;;;;;;;12.23;3.58;;;;;;;26.39;28.89;96318.44;5058300;28;20028;-30
2022/04/26 09:50:12;;;;;;;12.05;3.15;;;;;;;26.41;28.82;96319.16;5059616;28;20147;-29
2022/04/26 09:52:38;;;;;;;7.57;2.50;;;;;;;26.43;28.90;96312.03;5058130;28;20035;-31
2022/04/26 09:55:05;;;;;;;9.00;3.05;;;;;;;26.46;28.82;96319.69;5058730;28;20043;-28
2022/04/26 09:57:34;;;;;;;14.90;3.15;;;;;;;26.47;28.87;96313.53;5059806;28;20048;-29
2022/04/26 10:00:00;;;;;;;6.03;2.45;;;;;;;26.51;28.88;96314.16;5058629;28;20083;-29
2022/04/26 10:02:31;;;;;;;5.88;2.53;;;;;;;26.52;28.91;96316.72;5058316;28;20020;-29
2022/04/26 10:04:58;;;;;;;6.03;3.10;;;;;;;26.54;28.97;96314.81;5060551;28;20405;-30
2022/04/26 10:07:24;;;;;;;6.28;2.83;;;;;;;26.57;29.02;96319.88;5040771;28;20036;-29
2022/04/26 10:09:49;;;;;;;7.55;2.63;;;;;;;26.59;29.00;96317.16;5042608;28;20043;-29
2022/04/26 10:12:15;;;;;;;6.95;2.72;;;;;;;26.60;28.98;96309.19;5041091;28;20075;-29
2022/04/26 10:14:41;;;;;;;7.88;2.67;;;;;;;26.61;29.07;96310.84;5022996;28;20032;-28
2022/04/26 10:17:07;;;;;;;10.05;2.50;;;;;;;26.64;29.20;96314.22;5026436;28;20078;-29
2022/04/26 10:19:40;;;;;;;6.93;2.58;;;;;;;26.66;29.02;96307.09;5039501;28;20482;-30
2022/04/26 10:22:08;;;;;;;6.80;2.50;;;;;;;26.68;29.18;96306.06;5059846;28;20028;-29
2022/04/26 10:24:33;;;;;;;5.10;2.45;;;;;;;26.70;29.04;96313.84;5060592;28;20034;-28
2022/04/26 10:27:17;;;;;;;8.90;2.30;;;;;;;26.72;29.12;96311.94;5059095;28;20028;-28
2022/04/26 10:29:45;;;;;;;5.47;2.47;;;;;;;26.73;29.09;96313.63;5059648;28;20032;-30
2022/04/26 10:32:11;;;;;;;5.80;2.20;;;;;;;26.75;29.10;96311.75;5054281;28;20052;-32
2022/04/26 10:34:36;;;;;;;8.02;2.55;;;;;;;26.77;29.20;96314.28;5061203;28;20089;-32
2022/04/26 10:37:08;;;;;;;5.43;2.30;;;;;;;26.78;29.17;96314.19;5040204;28;21809;-30
2022/04/26 10:39:40;;;;;;;6.07;2.20;;;;;;;26.81;29.19;96307.88;5058492;28;20047;-30
2022/04/26 10:42:12;;;;;;;5.13;2.00;;;;;;;26.81;29.21;96311.34;5065930;28;20040;-29
2022/04/26 10:44:46;;;;;;;;;;;;;;;26.84;29.18;96315.56;5065307;28;20553;-30
2022/04/26 10:47:12;;;;;;;4.63;2.20;;;;;;;26.85;29.19;96319.88;5050467;28;20873;-30
2022/04/26 10:49:43;;;;;;;4.30;2.17;;;;;;;26.83;29.36;96320.00;5053171;28;20042;-30
2022/04/26 10:52:23;;;;;;;4.03;2.00;;;;;;;26.81;29.79;96315.78;5056495;28;20063;-28
2022/04/26 10:54:53;;;;;;;11.20;2.42;;;;;;;26.80;29.57;96324.59;5056090;28;20621;-31
2022/04/26 10:57:31;;;;;;;3.78;2.05;;;;;;;26.81;29.82;96319.22;5053301;28;20032;-34
2022/04/26 10:59:56;;;;;;;5.43;2.28;;;;;;;26.86;29.62;96325.03;5058251;28;20035;-32
2022/04/26 11:02:23;;;;;;;4.28;2.03;;;;;;;26.95;29.58;96317.50;5054355;28;20055;-30
2022/04/26 11:04:56;;;;;;;3.90;2.10;;;;;;;27.10;29.20;96327.03;5053529;28;20028;-31
2022/04/26 11:07:25;;;;;;;3.63;1.70;;;;;;;27.24;28.87;96333.19;5056251;28;21049;-31
2022/04/26 11:09:53;;;;;;;6.63;1.98;;;;;;;27.42;28.36;96327.63;5054860;28;20060;-31
2022/04/26 11:12:21;;;;;;;5.03;2.13;;;;;;;27.58;27.66;96325.63;5057160;28;20036;-32
2022/04/26 11:14:47;;;;;;;5.65;1.80;;;;;;;27.73;27.29;96329.03;5053900;28;20035;-31
2022/04/26 11:17:14;;;;;;;3.92;1.70;;;;;;;27.87;27.01;96328.09;5051292;28;20537;-31
2022/04/26 11:19:46;;;;;;;3.65;1.85;;;;;;;28.00;26.95;96330.69;5057586;28;20040;-32
2022/04/26 11:22:15;;;;;;;5.55;1.90;;;;;;;28.12;26.78;96331.66;5042967;28;20020;-31
2022/04/26 11:30:40;;;;;;;3.80;1.80;;;;;;;28.43;26.17;96331.31;5051732;28;20046;-31
2022/04/26 11:33:12;;;;;;;4.32;1.45;;;;;;;28.50;26.17;96331.69;5051310;28;20060;-31
2022/04/26 11:35:39;;;;;;;4.72;1.58;;;;;;;28.59;26.20;96336.31;5053486;28;20032;-30
2022/04/26 11:38:13;;;;;;;4.10;1.90;;;;;;;28.67;25.98;96338.38;5057499;28;21140;-30
2022/04/26 11:40:52;;;;;;;2.60;1.70;;;;;;;28.72;25.86;96340.69;5057696;28;20024;-33
2022/04/26 11:43:18;;;;;;;15.63;2.05;;;;;;;28.83;25.90;96346.03;5039943;28;20155;-31
2022/04/26 11:45:45;;;;;;;4.07;1.75;;;;;;;28.87;25.77;96359.84;5053596;28;20040;-31
2022/04/26 11:48:12;;;;;;;3.85;1.75;;;;;;;28.90;25.96;96349.94;5050342;28;20035;-33
2022/04/26 11:50:38;;;;;;;4.20;2.10;;;;;;;28.95;26.01;96362.81;5038225;28;20168;-31
2022/04/26 11:53:07;;;;;;;3.90;1.85;;;;;;;28.97;26.17;96370.56;5059734;28;20111;-31
2022/04/26 11:55:33;;;;;;;2.30;1.70;;;;;;;28.98;26.30;96367.00;5057369;28;20038;-30
2022/04/26 11:58:06;;;;;;;4.35;2.10;;;;;;;29.00;26.32;96370.38;5056369;28;20118;-31
2022/04/26 12:00:32;;;;;;;2.53;1.70;;;;;;;29.02;26.33;96368.47;5055351;28;20132;-33
2022/04/26 12:02:57;;;;;;;4.53;2.10;;;;;;;29.03;26.28;96360.41;5058003;28;20956;-31
2022/04/26 12:05:22;;;;;;;2.65;1.45;;;;;;;29.03;26.23;96378.06;5039293;28;20055;-30
2022/04/26 12:07:48;;;;;;;4.15;1.88;;;;;;;29.05;26.09;96381.41;5038007;28;20489;-31
2022/04/26 12:10:32;;;;;;;2.63;1.60;;;;;;;29.04;25.98;96388.50;5034670;28;20106;-31
2022/04/26 12:13:05;;;;;;;2.85;1.50;;;;;;;29.04;26.06;96403.47;5054024;28;20028;-30
2022/04/26 12:15:35;;;;;;;3.22;1.50;;;;;;;29.04;26.12;96408.75;5057417;28;20032;-32
2022/04/26 12:18:11;;;;;;;2.03;1.45;;;;;;;29.03;26.44;96407.06;5053739;28;20020;-34
2022/04/26 12:20:37;;;;;;;2.65;1.45;;;;;;;29.03;26.45;96404.44;5037289;28;20922;-33
2022/04/26 12:23:04;;;;;;;2.60;1.55;;;;;;;29.00;26.71;96408.16;5054696;28;20534;-30
2022/04/26 12:25:30;;;;;;;3.53;1.75;;;;;;;29.00;26.84;96416.06;5056955;28;20032;-31
2022/04/26 12:28:02;;;;;;;3.20;1.33;;;;;;;28.99;26.83;96421.44;5061203;28;20040;-31
2022/04/26 12:30:29;;;;;;;4.78;1.60;;;;;;;28.99;26.90;96434.63;5055858;28;20093;-31
2022/04/26 12:32:54;;;;;;;3.40;1.60;;;;;;;28.98;26.70;96438.22;5057512;28;20031;-30
2022/04/26 12:35:21;;;;;;;2.65;1.58;;;;;;;28.94;26.86;96441.06;5059406;28;20032;-31
2022/04/26 12:37:47;;;;;;;1.38;1.10;;;;;;;28.92;26.97;96442.97;5040975;28;20039;-33
2022/04/26 12:40:15;;;;;;;2.13;1.38;;;;;;;28.92;26.94;96450.88;5056354;28;20024;-32
2022/04/26 12:42:42;;;;;;;4.10;1.50;;;;;;;28.91;27.13;96451.00;5052583;28;20755;-29
2022/04/26 12:45:11;;;;;;;3.20;1.70;;;;;;;28.89;27.21;96453.75;5047624;28;20757;-30
2022/04/26 12:50:31;;;;;;;3.08;1.30;;;;;;;28.86;27.06;96456.56;5047318;28;20042;-29
2022/04/26 12:53:24;;;;;;;3.47;1.45;;;;;;;28.83;27.24;96449.72;5057648;28;20072;-28
2022/04/26 12:55:49;;;;;;;2.53;1.38;;;;;;;28.80;27.23;96457.03;5046590;28;20055;-29
2022/04/26 12:58:15;;;;;;;3.10;1.52;;;;;;;28.77;27.22;96457.22;5064298;28;20147;-28
2022/04/26 13:00:50;;;;;;;3.63;1.70;;;;;;;28.73;27.17;96456.63;5062971;28;20028;-29
2022/04/26 13:03:17;;;;;;;4.05;1.65;;;;;;;28.68;27.40;96459.56;5064312;28;20142;-27
2022/04/26 13:05:54;;;;;;;4.25;1.20;;;;;;;28.64;27.34;96458.09;5061091;28;20043;-30
2022/04/26 13:08:20;;;;;;;4.75;1.52;;;;;;;28.60;27.42;96461.88;5062427;28;20028;-29
2022/04/26 13:10:46;;;;;;;2.90;1.35;;;;;;;28.56;27.59;96457.78;5063987;28;20047;-29
2022/04/26 13:13:12;;;;;;;2.70;1.50;;;;;;;28.51;27.49;96454.63;5064837;28;20028;-29
2022/04/26 13:15:37;;;;;;;5.05;1.45;;;;;;;28.47;27.78;96459.28;5065853;28;20111;-30
2022/04/26 13:18:03;;;;;;;3.47;1.48;;;;;;;28.43;27.77;96463.94;5062058;28;20510;-30
2022/04/26 13:20:29;;;;;;;2.15;1.30;;;;;;;28.39;27.75;96462.47;5066570;28;20100;-30
2022/04/26 13:22:54;;;;;;;2.05;1.20;;;;;;;28.36;27.91;96461.81;5066753;28;21878;-29
2022/04/26 13:25:20;;;;;;;2.30;1.20;;;;;;;28.31;28.09;96456.88;5068679;28;20017;-28
2022/04/26 13:27:48;;;;;;;2.08;1.25;;;;;;;28.27;28.13;96463.28;5068962;28;20606;-29
2022/04/26 13:30:14;;;;;;;1.60;1.27;;;;;;;28.23;28.07;96457.38;5065263;28;20671;-29
2022/04/26 13:32:40;;;;;;;2.88;1.23;;;;;;;28.20;28.15;96452.31;5062696;28;20081;-29
2022/04/26 13:35:05;;;;;;;2.30;1.17;;;;;;;28.17;28.31;96457.78;5064923;28;20028;-30
2022/04/26 13:37:31;;;;;;;2.10;1.10;;;;;;;28.13;28.26;96462.41;5066612;28;20034;-29
2022/04/26 13:39:58;;;;;;;1.98;1.08;;;;;;;28.12;28.38;96470.41;5064315;28;20051;-30
2022/04/26 13:42:24;;;;;;;3.15;1.40;;;;;;;28.08;28.46;96459.25;5066950;28;20051;-28
2022/04/26 13:44:52;;;;;;;2.03;1.30;;;;;;;28.06;28.41;96471.69;5066863;28;20766;-29
2022/04/26 13:47:18;;;;;;;1.73;1.30;;;;;;;28.03;28.68;96471.88;5063768;28;20032;-29
2022/04/26 13:49:44;;;;;;;1.65;1.30;;;;;;;28.01;28.51;96464.09;5066619;28;20020;-29
2022/04/26 13:52:13;;;;;;;2.10;0.85;;;;;;;27.99;28.75;96471.25;5065529;28;20086;-28
2022/04/26 13:54:40;;;;;;;1.08;0.98;;;;;;;27.97;28.58;96472.28;5065770;28;20032;-30
2022/04/26 13:57:05;;;;;;;2.05;1.33;;;;;;;27.95;28.60;96484.75;5064024;28;20632;-29
2022/04/26 13:59:30;;;;;;;1.33;0.98;;;;;;;27.93;28.77;96476.94;5060718;28;20024;-28
2022/04/26 14:01:56;;;;;;;3.45;1.10;;;;;;;27.90;28.81;96478.00;5062767;28;20029;-29
2022/04/26 14:04:21;;;;;;;2.38;1.38;;;;;;;27.90;28.84;96475.34;5067414;28;20071;-29
2022/04/26 14:06:47;;;;;;;1.48;1.00;;;;;;;27.88;28.85;96469.34;5066256;28;20039;-29
2022/04/26 14:09:12;;;;;;;1.20;0.95;;;;;;;27.87;28.98;96469.44;5063846;28;20032;-29
2022/04/26 14:11:38;;;;;;;1.40;1.15;;;;;;;27.86;28.92;96481.78;5062313;28;20569;-28
2022/04/26 14:22:15;;;;;;;3.28;1.10;;;;;;;27.80;29.18;96476.91;5066276;28;20035;-29
2022/04/26 14:24:41;;;;;;;1.05;0.90;;;;;;;27.80;29.39;96479.53;5063854;28;20028;-29
2022/04/26 14:27:07;;;;;;;2.15;1.15;;;;;;;27.78;29.29;96478.81;5065858;28;20760;-28
2022/04/26 14:29:33;;;;;;;2.53;1.15;;;;;;;27.78;29.29;96484.06;5056630;28;20031;-30
2022/04/26 14:31:59;;;;;;;2.38;1.00;;;;;;;27.76;29.52;96472.78;5064678;28;20763;-29
2022/04/26 14:34:24;;;;;;;1.85;0.98;;;;;;;27.76;29.64;96475.41;5064843;28;20038;-30
2022/04/26 14:36:50;;;;;;;0.88;0.80;;;;;;;27.75;29.69;96486.91;5066857;28;20032;-29
2022/04/26 14:39:16;;;;;;;2.13;0.90;;;;;;;27.75;29.62;96484.25;5064444;28;20569;-28
2022/04/26 14:41:44;;;;;;;1.02;0.82;;;;;;;27.75;29.70;96479.00;5064437;28;20481;-32
2022/04/26 14:44:09;;;;;;;1.13;0.77;;;;;;;27.74;29.76;96472.06;5065065;28;20900;-29
2022/04/26 14:46:35;;;;;;;0.80;0.70;;;;;;;27.74;29.87;96477.31;5060013;28;20086;-29
2022/04/26 14:49:00;;;;;;;1.20;1.00;;;;;;;27.73;29.93;96480.91;5067130;28;20119;-31
2022/04/26 14:51:25;;;;;;;2.72;1.00;;;;;;;27.73;30.01;96475.63;5064184;28;20040;-30
2022/04/26 14:53:51;;;;;;;1.10;0.90;;;;;;;27.73;29.99;96476.47;5065893;28;20465;-30
2022/04/26 14:56:17;;;;;;;1.27;0.98;;;;;;;27.72;30.04;96474.78;5064229;28;20043;-30
2022/04/26 14:58:42;;;;;;;1.95;0.90;;;;;;;27.72;30.19;96479.22;5065516;28;20588;-30
2022/04/26 15:01:07;;;;;;;1.35;0.80;;;;;;;27.72;30.03;96468.69;5066935;28;20031;-28
2022/04/26 15:03:33;;;;;;;0.90;0.90;;;;;;;27.71;30.11;96483.63;5062948;28;20039;-30
2022/04/26 15:05:59;;;;;;;1.02;0.75;;;;;;;27.71;30.23;96473.09;5062917;28;22060;-28
2022/04/26 15:11:09;;;;;;;1.25;0.90;;;;;;;27.72;30.10;96477.41;5065104;28;20145;-35
2022/04/26 15:19:06;;;;;;;1.50;0.95;;;;;;;27.71;30.41;96480.13;5062106;28;20082;-29
2022/04/26 15:21:32;;;;;;;1.00;0.80;;;;;;;27.70;30.51;96475.81;5064563;28;20129;-29
2022/04/26 15:23:58;;;;;;;0.70;0.70;;;;;;;27.70;30.33;96475.81;5063547;28;20028;-30
2022/04/26 15:26:25;;;;;;;1.42;0.90;;;;;;;27.70;30.42;96478.47;5065554;28;21098;-30
2022/04/26 15:28:50;;;;;;;1.67;0.82;;;;;;;27.70;30.55;96481.09;5062730;28;20267;-30
2022/04/26 15:31:18;;;;;;;1.33;0.70;;;;;;;27.70;30.44;96476.69;5064437;28;20166;-32
2022/04/26 15:33:44;;;;;;;0.60;0.60;;;;;;;27.71;30.64;96488.03;5065561;28;20032;-31